createdAt,value
2022-11-14T00:01:28.077Z,24.30
2022-11-14T00:03:56.350Z,25.40
2022-11-14T00:06:24.317Z,25.70
2022-11-14T00:08:52.285Z,26.10
2022-11-14T00:11:20.295Z,26.00
2022-11-14T00:13:48.348Z,26.80
2022-11-14T00:16:17.627Z,27.10
2022-11-14T00:18:45.627Z,27.20
2022-11-14T00:21:13.564Z,27.50
2022-11-14T00:23:41.548Z,28.00
2022-11-14T00:26:09.491Z,28.10
2022-11-14T00:28:37.532Z,28.40
2022-11-14T00:51:48.900Z,29.80
2022-11-14T00:54:16.847Z,30.20
2022-11-14T00:56:44.824Z,30.40
2022-11-14T00:59:12.770Z,30.50
2022-11-14T01:01:40.784Z,31.00
2022-11-14T01:04:08.872Z,31.00
2022-11-14T01:06:36.858Z,30.90
2022-11-14T01:09:06.173Z,31.20
2022-11-14T01:11:34.195Z,31.70
2022-11-14T01:14:02.124Z,31.50
2022-11-14T01:16:30.129Z,32.10
2022-11-14T01:18:58.143Z,32.30
2022-11-14T01:21:26.181Z,32.30
2022-11-14T01:23:54.171Z,32.30
2022-11-14T01:51:04.718Z,35.00
2022-11-14T01:53:33.078Z,35.20
2022-11-14T01:56:05.494Z,34.60
2022-11-14T01:58:36.744Z,35.40
2022-11-14T02:01:05.684Z,35.20
2022-11-14T02:03:37.252Z,35.40
2022-11-14T02:06:09.347Z,35.40
2022-11-14T02:08:38.200Z,34.70
2022-11-14T02:11:06.678Z,36.00
2022-11-14T02:13:34.639Z,36.00
2022-11-14T02:44:39.049Z,37.70
2022-11-14T02:47:07.380Z,37.80
2022-11-14T02:49:35.379Z,38.20
2022-11-14T02:52:03.398Z,38.20
2022-11-14T02:54:31.383Z,37.80
2022-11-14T02:56:59.320Z,38.60
2022-11-14T02:59:27.323Z,38.50
2022-11-14T03:01:56.780Z,38.90
2022-11-14T03:04:24.809Z,39.60
2022-11-14T03:06:52.837Z,39.70
2022-11-14T03:09:20.814Z,39.80
2022-11-14T03:11:48.788Z,40.10
2022-11-14T03:14:16.747Z,40.20
2022-11-14T03:37:33.208Z,40.70
2022-11-14T03:40:01.248Z,41.30
2022-11-14T03:42:29.264Z,41.50
2022-11-14T03:44:57.209Z,41.30
2022-11-14T03:47:25.155Z,42.60
2022-11-14T03:49:53.121Z,41.60
2022-11-14T03:52:21.441Z,41.30
2022-11-14T03:54:50.942Z,41.20
2022-11-14T03:57:18.991Z,41.80
2022-11-14T03:59:46.903Z,41.50
2022-11-14T04:02:14.877Z,41.90
2022-11-14T04:04:42.840Z,42.40
2022-11-14T04:07:11.066Z,42.10
2022-11-14T04:09:39.081Z,42.20
2022-11-14T04:12:12.794Z,41.90
2022-11-14T04:14:43.417Z,42.60
2022-11-14T04:17:11.658Z,42.40
2022-11-14T04:19:39.636Z,42.50
2022-11-14T04:22:07.564Z,42.80
2022-11-14T04:24:35.546Z,42.80
2022-11-14T04:27:03.518Z,42.90
2022-11-14T04:29:32.843Z,43.30
2022-11-14T04:32:00.811Z,44.10
2022-11-14T04:34:28.775Z,43.70
2022-11-14T04:36:56.748Z,43.50
2022-11-14T04:39:24.709Z,43.90
2022-11-14T04:41:52.625Z,43.80
2022-11-14T04:44:20.551Z,43.90
2022-11-14T04:46:49.837Z,43.60
2022-11-14T04:49:17.823Z,44.20
2022-11-14T04:51:46.004Z,43.70
2022-11-14T04:54:13.927Z,43.70
2022-11-14T04:56:41.861Z,43.40
2022-11-14T04:59:09.992Z,43.70
2022-11-14T05:01:38.006Z,43.50
2022-11-14T05:04:07.539Z,43.70
2022-11-14T05:06:35.534Z,43.80
2022-11-14T05:09:03.510Z,43.80
2022-11-14T05:11:31.535Z,44.20
2022-11-14T05:13:59.476Z,43.90
2022-11-14T05:16:27.442Z,44.60
2022-11-14T05:18:55.556Z,44.50
2022-11-14T05:21:24.827Z,43.90
2022-11-14T05:23:52.787Z,44.20
2022-11-14T05:26:20.806Z,44.40
2022-11-14T05:28:48.778Z,44.00
2022-11-14T05:31:17.826Z,44.50
2022-11-14T05:33:46.724Z,44.60
2022-11-14T05:36:17.143Z,44.90
2022-11-14T05:38:46.488Z,44.20
2022-11-14T05:41:16.695Z,44.50
2022-11-14T05:43:45.113Z,44.40
2022-11-14T05:46:15.453Z,44.70
2022-11-14T05:48:44.191Z,44.30
2022-11-14T05:51:14.159Z,44.30
2022-11-14T05:53:42.539Z,44.00
2022-11-14T05:56:14.120Z,44.40
2022-11-14T05:58:42.309Z,44.70
2022-11-14T06:01:13.479Z,45.20
2022-11-14T06:03:43.597Z,44.70
2022-11-14T06:06:14.776Z,44.80
2022-11-14T06:08:43.494Z,44.90
2022-11-14T06:11:15.223Z,44.60
2022-11-14T06:13:43.949Z,44.60
2022-11-14T06:16:14.547Z,44.40
2022-11-14T06:18:42.855Z,44.80
2022-11-14T06:21:14.155Z,45.30
2022-11-14T06:23:42.673Z,45.70
2022-11-14T06:26:21.790Z,45.00
2022-11-14T06:28:50.804Z,45.10
2022-11-14T06:31:21.235Z,45.20
2022-11-14T06:33:49.601Z,45.30
2022-11-14T06:36:18.175Z,45.50
2022-11-14T06:38:46.268Z,45.40
2022-11-14T06:41:17.953Z,45.20
2022-11-14T06:43:48.725Z,45.80
2022-11-14T06:46:20.534Z,45.40
2022-11-14T06:48:50.611Z,45.50
2022-11-14T06:51:18.965Z,46.10
2022-11-14T06:53:47.138Z,45.60
2022-11-14T06:56:20.074Z,45.50
2022-11-14T06:58:50.172Z,46.40
2022-11-14T07:01:20.011Z,45.90
2022-11-14T07:03:48.768Z,46.40
2022-11-14T07:06:20.095Z,45.90
2022-11-14T07:08:48.304Z,46.00
2022-11-14T07:11:23.622Z,45.50
2022-11-14T07:13:52.468Z,46.20
2022-11-14T07:16:21.628Z,46.00
2022-11-14T07:18:49.577Z,45.40
2022-11-14T07:21:17.653Z,45.50
2022-11-14T07:23:45.637Z,45.50
2022-11-14T07:26:13.887Z,46.20
2022-11-14T07:28:48.086Z,45.20
2022-11-14T07:31:21.347Z,45.10
2022-11-14T07:33:49.592Z,45.90
2022-11-14T07:36:19.783Z,45.40
2022-11-14T07:38:47.943Z,45.80
2022-11-14T07:41:17.438Z,45.30
2022-11-14T07:43:47.012Z,46.00
2022-11-14T07:46:17.847Z,45.40
2022-11-14T07:48:46.618Z,45.60
2022-11-14T07:51:18.439Z,45.10
2022-11-14T07:53:46.760Z,45.10
2022-11-14T07:56:17.070Z,45.40
2022-11-14T07:58:46.499Z,45.40
2022-11-14T08:01:15.642Z,45.00
2022-11-14T08:03:46.018Z,45.50
2022-11-14T08:06:16.642Z,45.30
2022-11-14T08:08:45.304Z,45.80
2022-11-14T08:11:15.122Z,45.30
2022-11-14T08:13:52.669Z,45.60
2022-11-14T08:16:20.706Z,45.70
2022-11-14T08:18:48.769Z,45.60
2022-11-14T08:21:16.858Z,45.70
2022-11-14T08:23:45.816Z,45.20
2022-11-14T08:26:14.037Z,45.10
2022-11-14T08:28:42.164Z,45.70
2022-11-14T08:31:13.391Z,45.50
2022-11-14T08:33:41.488Z,45.30
2022-11-14T08:36:11.760Z,45.30
2022-11-14T08:38:39.789Z,45.10
2022-11-14T08:41:07.844Z,45.20
2022-11-14T08:43:35.968Z,45.50
2022-11-14T08:46:06.299Z,45.70
2022-11-14T08:48:35.698Z,45.50
2022-11-14T08:51:05.851Z,45.00
2022-11-14T08:53:34.894Z,45.30
2022-11-14T08:56:03.376Z,45.30
2022-11-14T08:58:32.795Z,45.10
2022-11-14T09:01:02.799Z,45.00
2022-11-14T09:03:30.949Z,44.70
2022-11-14T09:06:00.753Z,45.80
2022-11-14T09:08:30.327Z,45.40
2022-11-14T09:11:05.243Z,45.40
2022-11-14T09:13:34.911Z,45.20
2022-11-14T09:16:03.529Z,45.20
2022-11-14T09:18:32.437Z,45.20
2022-11-14T09:21:03.672Z,44.40
2022-11-14T09:23:32.649Z,27.10
2022-11-14T09:26:05.465Z,29.00
2022-11-14T09:28:34.147Z,30.40
2022-11-14T09:31:03.708Z,29.90
2022-11-14T09:33:32.131Z,29.10
2022-11-14T09:36:03.767Z,29.10
2022-11-14T09:38:38.010Z,28.70
2022-11-14T09:41:24.410Z,28.80
2022-11-14T09:44:42.991Z,28.60
2022-11-14T09:47:20.551Z,28.50
2022-11-14T09:49:53.449Z,29.00
2022-11-14T09:52:32.143Z,28.00
2022-11-14T09:55:04.641Z,28.40
2022-11-14T09:57:32.816Z,28.30
2022-11-14T10:00:00.963Z,28.60
2022-11-14T10:02:41.351Z,28.70
2022-11-14T10:05:37.371Z,28.80
2022-11-14T10:08:39.657Z,28.80
2022-11-14T10:11:11.310Z,28.70
2022-11-14T10:14:23.044Z,28.70
2022-11-14T10:17:10.200Z,28.80
2022-11-14T10:19:48.723Z,29.10
2022-11-14T10:22:38.577Z,29.10
2022-11-14T10:25:23.758Z,29.20
2022-11-14T10:28:08.295Z,29.50
2022-11-14T10:30:42.163Z,29.70
2022-11-14T10:33:23.537Z,29.70
2022-11-14T10:35:57.592Z,29.80
2022-11-14T10:38:31.876Z,29.90
2022-11-14T10:41:06.260Z,30.20
2022-11-14T10:43:40.231Z,30.40
2022-11-14T10:46:14.508Z,30.80
2022-11-14T10:48:47.093Z,31.00
2022-11-14T10:51:23.745Z,31.40
2022-11-14T10:53:56.738Z,31.30
2022-11-14T10:56:26.166Z,31.50
2022-11-14T10:58:54.219Z,30.70
2022-11-14T11:01:41.306Z,30.50
2022-11-14T11:04:27.425Z,25.10
2022-11-14T11:06:58.196Z,28.10
2022-11-14T11:09:46.517Z,25.60
2022-11-14T11:12:21.270Z,23.00
2022-11-14T11:14:52.538Z,26.70
2022-11-14T11:17:26.843Z,26.20
2022-11-14T11:20:29.997Z,23.90
2022-11-14T11:23:05.500Z,24.00
2022-11-14T11:25:35.139Z,25.40
2022-11-14T11:28:12.901Z,26.10
2022-11-14T11:30:41.547Z,25.60
2022-11-14T11:33:25.247Z,25.50
2022-11-14T11:35:58.307Z,25.60
2022-11-14T11:38:30.263Z,26.30
2022-11-14T11:41:15.425Z,26.20
2022-11-14T11:44:00.856Z,26.80
2022-11-14T11:46:36.195Z,27.10
2022-11-14T11:49:13.154Z,27.10
2022-11-14T11:51:42.305Z,27.30
2022-11-14T11:54:17.803Z,27.50
2022-11-14T11:56:50.239Z,27.30
2022-11-14T11:59:29.116Z,27.90
2022-11-14T12:01:57.224Z,27.70
2022-11-14T12:04:26.219Z,28.00
2022-11-14T12:07:07.573Z,27.80
2022-11-14T12:12:57.119Z,27.70
2022-11-14T12:15:33.543Z,28.00
2022-11-14T12:18:25.599Z,28.10
2022-11-14T12:21:13.839Z,27.90
2022-11-14T12:24:06.563Z,27.90
2022-11-14T12:26:52.895Z,27.90
2022-11-14T12:29:41.406Z,28.40
2022-11-14T12:32:22.887Z,28.30
2022-11-14T12:34:52.278Z,28.00
2022-11-14T12:37:24.282Z,27.80
2022-11-14T12:40:00.212Z,28.10
2022-11-14T12:42:28.730Z,28.10
2022-11-14T12:44:56.792Z,28.70
2022-11-14T12:47:27.204Z,28.40
2022-11-14T12:50:31.284Z,28.70
2022-11-14T12:52:59.438Z,28.80
2022-11-14T12:55:57.968Z,28.70
2022-11-14T12:58:55.326Z,29.20
2022-11-14T13:01:42.104Z,29.30
2022-11-14T13:04:26.501Z,29.20
2022-11-14T13:07:15.103Z,29.40
2022-11-14T13:10:02.421Z,29.70
2022-11-14T13:12:51.656Z,29.70
2022-11-14T13:16:00.054Z,29.80
2022-11-14T13:18:46.392Z,29.80
2022-11-14T13:21:55.499Z,29.60
2022-11-14T13:24:23.699Z,30.00
2022-11-14T13:26:55.939Z,30.20
2022-11-14T13:29:58.785Z,30.00
2022-11-14T13:33:06.484Z,30.00
2022-11-14T13:35:49.251Z,30.50
2022-11-14T13:39:08.030Z,30.70
2022-11-14T13:42:10.610Z,30.10
2022-11-14T13:45:17.238Z,31.20
2022-11-14T13:48:16.690Z,31.20
2022-11-14T13:50:51.101Z,31.30
2022-11-14T13:53:23.938Z,31.40
2022-11-14T13:56:09.422Z,31.30
2022-11-14T13:59:14.161Z,31.70
2022-11-14T14:02:13.052Z,31.20
2022-11-14T14:04:54.098Z,31.50
2022-11-14T14:07:29.348Z,31.70
2022-11-14T14:10:10.560Z,32.00
2022-11-14T14:12:59.618Z,31.70
2022-11-14T14:15:37.977Z,31.70
2022-11-14T14:18:19.391Z,31.70
2022-11-14T14:20:55.911Z,31.70
2022-11-14T14:23:38.529Z,31.70
2022-11-14T14:26:22.010Z,31.30
2022-11-14T14:29:05.879Z,31.20
2022-11-14T14:31:39.323Z,31.60
2022-11-14T14:34:23.781Z,31.60
2022-11-14T14:36:54.323Z,31.70
2022-11-14T14:39:25.782Z,31.60
2022-11-14T14:41:56.753Z,31.60
2022-11-14T14:44:28.440Z,31.30
2022-11-14T14:46:57.904Z,31.80
2022-11-14T14:49:29.467Z,31.80
2022-11-14T14:51:58.903Z,31.60
2022-11-14T14:54:30.391Z,31.80
2022-11-14T14:57:01.107Z,31.80
2022-11-14T14:59:31.889Z,32.00
2022-11-14T15:02:01.636Z,31.60
2022-11-14T15:04:31.676Z,31.50
2022-11-14T15:06:59.936Z,31.60
2022-11-14T15:09:30.551Z,31.30
2022-11-14T15:12:01.367Z,31.80
2022-11-14T15:14:33.221Z,31.80
2022-11-14T15:17:04.982Z,31.80
2022-11-14T15:19:40.076Z,31.90
2022-11-14T15:22:25.724Z,31.90
2022-11-14T15:25:20.504Z,31.90
2022-11-14T15:27:54.692Z,31.60
2022-11-14T15:30:26.556Z,31.70
2022-11-14T15:32:58.944Z,31.90
2022-11-14T15:35:33.560Z,31.90
2022-11-14T15:38:28.906Z,31.80
2022-11-14T15:41:19.493Z,31.90
2022-11-14T15:43:53.192Z,31.60
2022-11-14T15:46:41.980Z,31.90
2022-11-14T15:49:20.675Z,31.80
2022-11-14T15:51:52.680Z,31.60
2022-11-14T15:54:25.136Z,31.80
2022-11-14T15:56:54.275Z,32.20
2022-11-14T15:59:22.768Z,32.30
2022-11-14T16:01:55.516Z,31.80
2022-11-14T16:04:30.605Z,31.90
2022-11-14T16:06:58.757Z,32.00
2022-11-14T16:09:26.896Z,32.00
2022-11-14T16:11:54.972Z,32.20
2022-11-14T16:14:23.100Z,32.20
2022-11-14T16:16:51.222Z,32.00
2022-11-14T16:19:19.344Z,32.00
2022-11-14T16:21:49.195Z,32.30
2022-11-14T16:24:19.625Z,32.00
2022-11-14T16:26:48.601Z,32.00
2022-11-14T16:29:17.463Z,32.00
2022-11-14T16:31:45.674Z,32.00
2022-11-14T16:34:19.975Z,32.10
2022-11-14T16:36:51.553Z,32.20
2022-11-14T16:39:19.638Z,32.20
2022-11-14T16:41:47.757Z,32.40
2022-11-14T16:44:17.643Z,32.20
2022-11-14T16:46:47.145Z,32.50
2022-11-14T16:49:16.465Z,32.10
2022-11-14T16:51:48.167Z,32.00
2022-11-14T16:54:19.566Z,32.70
2022-11-14T16:56:47.884Z,31.70
2022-11-14T16:59:16.583Z,31.70
2022-11-14T17:01:44.763Z,31.90
2022-11-14T17:04:12.991Z,31.70
2022-11-14T17:06:41.111Z,31.90
2022-11-14T17:09:16.214Z,31.70
2022-11-14T17:11:48.044Z,32.20
2022-11-14T17:14:16.091Z,32.20
2022-11-14T17:16:44.118Z,31.70
2022-11-14T17:19:12.194Z,32.90
2022-11-14T17:21:41.116Z,32.00
2022-11-14T17:24:09.454Z,31.70
2022-11-14T17:26:37.540Z,31.90
2022-11-14T17:29:07.765Z,32.10
2022-11-14T17:31:38.336Z,31.90
2022-11-14T17:34:11.236Z,32.00
2022-11-14T17:36:39.285Z,31.80
2022-11-14T17:39:07.528Z,31.70
2022-11-14T17:41:35.565Z,32.00
2022-11-14T17:44:03.681Z,32.00
2022-11-14T17:46:33.299Z,31.60
2022-11-14T17:49:01.558Z,31.50
2022-11-14T17:51:29.628Z,31.80
2022-11-14T17:53:57.671Z,32.30
2022-11-14T17:56:27.474Z,32.20
2022-11-14T17:58:55.507Z,32.10
2022-11-14T18:01:26.076Z,32.40
2022-11-14T18:04:01.657Z,31.70
2022-11-14T18:06:34.267Z,32.00
2022-11-14T18:09:04.997Z,31.70
2022-11-14T18:11:33.818Z,32.00
2022-11-14T18:14:02.010Z,32.20
2022-11-14T18:16:50.373Z,32.60
2022-11-14T18:19:20.475Z,32.90
2022-11-14T18:21:53.213Z,33.00
2022-11-14T18:24:23.564Z,32.40
2022-11-14T18:26:52.430Z,32.70
2022-11-14T18:29:20.390Z,32.90
2022-11-14T18:31:48.426Z,33.00
2022-11-14T18:34:16.412Z,33.00
2022-11-14T18:36:45.745Z,32.70
2022-11-14T18:39:13.736Z,32.60
2022-11-14T18:41:41.703Z,32.80
2022-11-14T18:44:09.703Z,33.00
2022-11-14T18:46:38.379Z,32.60
2022-11-14T18:49:06.401Z,32.80
2022-11-14T18:51:41.793Z,33.00
2022-11-14T18:54:14.105Z,33.00
2022-11-14T18:56:42.089Z,33.20
2022-11-14T18:59:10.388Z,33.00
2022-11-14T19:01:38.435Z,32.80
2022-11-14T19:04:08.664Z,32.80
2022-11-14T19:06:40.126Z,33.00
2022-11-14T19:09:11.763Z,32.90
2022-11-14T19:11:58.643Z,33.00
2022-11-14T19:14:26.644Z,32.50
2022-11-14T19:16:54.990Z,32.60
2022-11-14T19:19:23.100Z,32.70
2022-11-14T19:21:51.648Z,33.80
2022-11-14T19:24:19.925Z,32.80
2022-11-14T19:26:49.345Z,32.90
2022-11-14T19:29:17.379Z,32.80
2022-11-14T19:31:45.439Z,32.90
2022-11-14T19:34:13.461Z,32.80
2022-11-14T19:39:29.861Z,32.90
2022-11-14T19:41:59.395Z,33.10
2022-11-14T19:44:27.386Z,32.80
2022-11-14T19:46:55.370Z,33.40
2022-11-14T19:49:23.443Z,33.00
2022-11-14T19:51:51.437Z,32.60
2022-11-14T19:54:19.507Z,33.80
2022-11-14T19:56:47.554Z,33.60
2022-11-14T19:59:20.175Z,34.30
2022-11-14T20:01:55.364Z,32.80
2022-11-14T20:04:23.818Z,33.80
2022-11-14T20:06:52.090Z,34.40
2022-11-14T20:09:20.230Z,34.90
2022-11-14T20:11:48.360Z,34.40
2022-11-14T20:14:18.065Z,33.60
2022-11-14T20:16:46.649Z,34.40
2022-11-14T20:19:15.984Z,34.50
2022-11-14T20:21:44.168Z,33.80
2022-11-14T20:24:15.318Z,32.90
2022-11-14T20:26:43.424Z,33.60
2022-11-14T20:29:11.614Z,33.30
2022-11-14T20:31:41.148Z,32.70
2022-11-14T20:34:10.446Z,33.30
2022-11-14T20:36:57.021Z,34.40
2022-11-14T20:39:26.619Z,32.90
2022-11-14T20:41:54.707Z,33.50
2022-11-14T20:44:22.908Z,33.00
2022-11-14T20:46:52.436Z,33.00
2022-11-14T20:49:20.563Z,33.20
2022-11-14T20:51:50.324Z,34.00
2022-11-14T20:54:18.416Z,33.30
2022-11-14T20:56:46.529Z,33.50
2022-11-14T20:59:14.643Z,33.00
2022-11-14T21:01:44.152Z,32.60
2022-11-14T21:04:13.847Z,32.70
2022-11-14T21:06:41.786Z,34.00
2022-11-14T21:09:10.634Z,32.50
2022-11-14T21:11:38.658Z,34.00
2022-11-14T21:14:06.656Z,33.30
2022-11-14T21:16:38.523Z,32.80
2022-11-14T21:19:08.403Z,33.30
2022-11-14T21:21:39.208Z,33.20
2022-11-14T21:24:08.468Z,33.20
2022-11-14T21:26:39.877Z,33.50
2022-11-14T21:29:11.841Z,33.50
2022-11-14T21:31:42.422Z,32.60
2022-11-14T21:34:14.383Z,33.30
2022-11-14T21:36:45.823Z,32.30
2022-11-14T21:39:16.155Z,33.70
2022-11-14T21:41:45.699Z,33.30
2022-11-14T21:44:16.558Z,33.20
2022-11-14T21:46:46.994Z,33.10
2022-11-14T21:49:15.397Z,33.20
2022-11-14T21:51:44.777Z,33.20
2022-11-14T21:54:12.794Z,33.50
2022-11-14T21:56:40.875Z,33.00
2022-11-14T21:59:17.600Z,32.40
2022-11-14T22:02:04.940Z,31.70
2022-11-14T22:04:33.692Z,31.40
2022-11-14T22:07:06.805Z,31.80
2022-11-14T22:09:38.717Z,31.80
2022-11-14T22:12:09.255Z,31.90
2022-11-14T22:14:37.268Z,32.20
2022-11-14T22:17:05.231Z,32.20
2022-11-14T22:19:33.257Z,32.20
2022-11-14T22:22:01.239Z,32.40
2022-11-14T22:24:30.655Z,33.10
2022-11-14T22:26:58.634Z,32.60
2022-11-14T22:29:26.583Z,32.40
2022-11-14T22:31:56.437Z,33.30
2022-11-14T22:34:24.514Z,32.80
2022-11-14T22:36:52.593Z,33.50
2022-11-14T22:39:20.653Z,32.30
2022-11-14T22:41:49.981Z,32.30
2022-11-14T22:44:17.989Z,32.30
2022-11-14T22:46:46.147Z,32.40
2022-11-14T22:49:18.428Z,34.30
2022-11-14T22:51:48.780Z,34.20
2022-11-14T22:54:16.825Z,34.20
2022-11-14T22:56:44.823Z,33.70
2022-11-14T22:59:14.404Z,34.90
2022-11-14T23:01:42.407Z,33.70
2022-11-14T23:04:11.066Z,34.30
2022-11-14T23:06:39.133Z,34.20
2022-11-14T23:09:07.238Z,34.50
2022-11-14T23:11:35.421Z,33.70
2022-11-14T23:14:03.421Z,33.80
2022-11-14T23:16:34.591Z,34.70
2022-11-14T23:19:04.889Z,34.50
2022-11-14T23:21:35.811Z,34.70
2022-11-14T23:24:06.770Z,34.70
2022-11-14T23:26:35.007Z,34.80
2022-11-14T23:29:03.401Z,34.40
2022-11-14T23:31:32.784Z,34.60
2022-11-14T23:34:00.779Z,35.00
2022-11-14T23:36:28.762Z,34.70
2022-11-14T23:38:56.936Z,35.00
2022-11-14T23:41:26.565Z,35.10
2022-11-14T23:43:54.579Z,34.70
2022-11-14T23:46:22.598Z,35.60
2022-11-14T23:48:53.226Z,35.70
2022-11-14T23:51:21.214Z,35.80
2022-11-14T23:53:49.209Z,35.40
2022-11-14T23:56:17.325Z,35.90
2022-11-14T23:58:45.338Z,35.20
